Painswick, United Kingdom
Current Conditions -  °F | °C
As of 4:58 AM on Saturday 29 Nov 2014 (Local Time) from EGVA Reporting Station
Clear Clear  
Wind Chill: 44°   Ceiling: Unl
Heat Index: 47°   Visibility: 6mi
Dew Point: 47°   Wind: 7mph
Humidity: 99%   Direction: 50°NE
Pressure: 29.74"   Gusts: NA
Location:  51.79°N, 2.2°W
Report Text: EGVA 290458Z AUTO 05006KT 9999 CLR 08/08 A2974 RMK AO2 SLP075 T00830081 $
Loading
Personal Weather Stations






























Interactive Weather Map New forecast layout! Learn more

10-Day Weather Forecast

Advertisements
Track Severe Weather on mobile